sensor_id;sensor_type;location;lat;lon;timestamp;pressure;altitude;pressure_sealevel;temperature;humidity
53546;BME280;39432;51.902;10.844;2023-04-05T00:02:27;100367.84;;;0.65;100.00
53546;BME280;39432;51.902;10.844;2023-04-05T00:04:57;100363.00;;;1.00;100.00
53546;BME280;39432;51.902;10.844;2023-04-05T00:07:29;100359.81;;;1.19;100.00
53546;BME280;39432;51.902;10.844;2023-04-05T00:10:00;100357.53;;;1.08;100.00
53546;BME280;39432;51.902;10.844;2023-04-05T00:12:29;100361.84;;;0.55;100.00
53546;BME280;39432;51.902;10.844;2023-04-05T00:15:02;100361.22;;;0.37;100.00
53546;BME280;39432;51.902;10.844;2023-04-05T00:17:32;100355.81;;;0.45;100.00
53546;BME280;39432;51.902;10.844;2023-04-05T00:20:01;100358.56;;;0.20;100.00
53546;BME280;39432;51.902;10.844;2023-04-05T00:22:34;100354.19;;;0.75;100.00
53546;BME280;39432;51.902;10.844;2023-04-05T00:25:05;100348.97;;;0.34;100.00
53546;BME280;39432;51.902;10.844;2023-04-05T00:27:35;100353.50;;;0.34;100.00
53546;BME280;39432;51.902;10.844;2023-04-05T00:30:08;100357.72;;;0.20;100.00
53546;BME280;39432;51.902;10.844;2023-04-05T00:32:37;100356.81;;;0.52;100.00
53546;BME280;39432;51.902;10.844;2023-04-05T00:35:08;100356.56;;;0.22;100.00
53546;BME280;39432;51.902;10.844;2023-04-05T00:37:38;100354.56;;;0.08;100.00
53546;BME280;39432;51.902;10.844;2023-04-05T00:40:08;100352.22;;;0.13;100.00
53546;BME280;39432;51.902;10.844;2023-04-05T00:42:38;100348.53;;;-0.02;100.00
53546;BME280;39432;51.902;10.844;2023-04-05T00:45:12;100334.22;;;0.14;100.00
53546;BME280;39432;51.902;10.844;2023-04-05T00:47:43;100343.47;;;0.11;100.00
53546;BME280;39432;51.902;10.844;2023-04-05T00:50:13;100340.75;;;0.19;100.00
53546;BME280;39432;51.902;10.844;2023-04-05T00:52:44;100339.44;;;0.07;100.00
53546;BME280;39432;51.902;10.844;2023-04-05T00:55:15;100336.25;;;0.12;100.00
53546;BME280;39432;51.902;10.844;2023-04-05T00:57:45;100341.13;;;0.08;100.00
53546;BME280;39432;51.902;10.844;2023-04-05T01:00:19;100337.41;;;0.09;100.00
53546;BME280;39432;51.902;10.844;2023-04-05T01:02:51;100335.38;;;0.28;100.00
53546;BME280;39432;51.902;10.844;2023-04-05T01:05:32;100332.25;;;0.47;100.00
53546;BME280;39432;51.902;10.844;2023-04-05T01:08:09;100324.50;;;0.52;100.00
53546;BME280;39432;51.902;10.844;2023-04-05T01:10:45;100329.19;;;0.58;100.00
53546;BME280;39432;51.902;10.844;2023-04-05T01:13:17;100324.50;;;0.52;100.00
53546;BME280;39432;51.902;10.844;2023-04-05T01:15:49;100328.78;;;0.30;100.00
53546;BME280;39432;51.902;10.844;2023-04-05T01:18:19;100320.22;;;0.26;100.00
53546;BME280;39432;51.902;10.844;2023-04-05T01:20:55;100328.75;;;0.38;100.00
53546;BME280;39432;51.902;10.844;2023-04-05T01:23:36;100330.00;;;0.19;100.00
53546;BME280;39432;51.902;10.844;2023-04-05T01:26:31;100319.19;;;0.36;100.00
53546;BME280;39432;51.902;10.844;2023-04-05T01:32:22;100327.34;;;0.11;100.00
53546;BME280;39432;51.902;10.844;2023-04-05T01:34:59;100332.81;;;0.73;100.00
53546;BME280;39432;51.902;10.844;2023-04-05T01:37:33;100335.69;;;0.16;100.00
53546;BME280;39432;51.902;10.844;2023-04-05T01:40:04;100335.66;;;0.41;100.00
53546;BME280;39432;51.902;10.844;2023-04-05T01:42:34;100340.19;;;0.79;100.00
53546;BME280;39432;51.902;10.844;2023-04-05T01:45:08;100331.81;;;0.27;100.00
53546;BME280;39432;51.902;10.844;2023-04-05T01:47:41;100342.78;;;0.17;100.00
53546;BME280;39432;51.902;10.844;2023-04-05T01:50:11;100349.56;;;-0.36;100.00
53546;BME280;39432;51.902;10.844;2023-04-05T01:52:41;100357.78;;;-0.62;100.00
53546;BME280;39432;51.902;10.844;2023-04-05T01:55:11;100346.31;;;0.10;100.00
53546;BME280;39432;51.902;10.844;2023-04-05T01:57:40;100340.28;;;0.63;100.00
53546;BME280;39432;51.902;10.844;2023-04-05T02:00:11;100353.09;;;0.53;100.00
53546;BME280;39432;51.902;10.844;2023-04-05T02:02:45;100351.59;;;-0.30;100.00
53546;BME280;39432;51.902;10.844;2023-04-05T02:05:17;100356.94;;;-0.13;100.00
53546;BME280;39432;51.902;10.844;2023-04-05T02:07:47;100352.44;;;0.82;100.00
53546;BME280;39432;51.902;10.844;2023-04-05T02:10:17;100357.97;;;0.49;100.00
53546;BME280;39432;51.902;10.844;2023-04-05T02:12:47;100341.41;;;0.30;100.00
53546;BME280;39432;51.902;10.844;2023-04-05T02:15:17;100344.50;;;1.43;100.00
53546;BME280;39432;51.902;10.844;2023-04-05T02:17:49;100343.03;;;1.09;100.00
53546;BME280;39432;51.902;10.844;2023-04-05T02:20:20;100341.88;;;0.81;100.00
53546;BME280;39432;51.902;10.844;2023-04-05T02:22:51;100335.84;;;1.70;100.00
53546;BME280;39432;51.902;10.844;2023-04-05T02:25:21;100338.81;;;2.13;100.00
53546;BME280;39432;51.902;10.844;2023-04-05T02:27:51;100332.53;;;1.22;100.00
53546;BME280;39432;51.902;10.844;2023-04-05T02:30:21;100321.84;;;1.52;100.00
53546;BME280;39432;51.902;10.844;2023-04-05T02:32:53;100336.09;;;1.83;100.00
53546;BME280;39432;51.902;10.844;2023-04-05T02:35:23;100335.53;;;0.65;100.00
53546;BME280;39432;51.902;10.844;2023-04-05T02:37:52;100332.03;;;0.96;100.00
53546;BME280;39432;51.902;10.844;2023-04-05T02:40:22;100319.81;;;1.08;100.00
53546;BME280;39432;51.902;10.844;2023-04-05T02:42:52;100331.84;;;0.66;100.00
53546;BME280;39432;51.902;10.844;2023-04-05T02:45:22;100321.56;;;1.01;100.00
53546;BME280;39432;51.902;10.844;2023-04-05T02:47:58;100318.81;;;1.55;100.00
53546;BME280;39432;51.902;10.844;2023-04-05T02:50:30;100314.28;;;0.78;100.00
53546;BME280;39432;51.902;10.844;2023-04-05T02:53:00;100316.34;;;0.99;100.00
53546;BME280;39432;51.902;10.844;2023-04-05T02:55:29;100314.00;;;0.65;100.00
53546;BME280;39432;51.902;10.844;2023-04-05T02:58:00;100322.13;;;0.57;100.00
53546;BME280;39432;51.902;10.844;2023-04-05T03:00:36;100319.03;;;0.68;100.00
53546;BME280;39432;51.902;10.844;2023-04-05T03:03:10;100313.75;;;0.44;100.00
53546;BME280;39432;51.902;10.844;2023-04-05T03:05:41;100302.81;;;0.85;100.00
53546;BME280;39432;51.902;10.844;2023-04-05T03:08:13;100306.91;;;1.26;100.00
53546;BME280;39432;51.902;10.844;2023-04-05T03:10:56;100308.91;;;1.47;100.00
53546;BME280;39432;51.902;10.844;2023-04-05T03:13:25;100307.59;;;1.20;100.00
53546;BME280;39432;51.902;10.844;2023-04-05T03:15:56;100304.97;;;1.12;100.00
53546;BME280;39432;51.902;10.844;2023-04-05T03:18:31;100306.84;;;0.81;100.00
53546;BME280;39432;51.902;10.844;2023-04-05T03:21:05;100304.72;;;0.99;100.00
53546;BME280;39432;51.902;10.844;2023-04-05T03:23:46;100296.00;;;1.20;100.00
53546;BME280;39432;51.902;10.844;2023-04-05T03:26:21;100299.53;;;0.66;100.00
53546;BME280;39432;51.902;10.844;2023-04-05T03:28:52;100300.78;;;1.33;100.00
53546;BME280;39432;51.902;10.844;2023-04-05T03:31:29;100304.00;;;1.51;100.00
53546;BME280;39432;51.902;10.844;2023-04-05T03:34:06;100292.84;;;1.16;100.00
53546;BME280;39432;51.902;10.844;2023-04-05T03:36:45;100297.50;;;0.68;100.00
53546;BME280;39432;51.902;10.844;2023-04-05T03:39:35;100302.13;;;0.51;100.00
53546;BME280;39432;51.902;10.844;2023-04-05T03:42:05;100296.44;;;0.77;100.00
53546;BME280;39432;51.902;10.844;2023-04-05T03:44:35;100299.09;;;1.09;100.00
53546;BME280;39432;51.902;10.844;2023-04-05T03:47:05;100293.94;;;0.99;100.00
53546;BME280;39432;51.902;10.844;2023-04-05T03:49:40;100285.84;;;0.76;100.00
53546;BME280;39432;51.902;10.844;2023-04-05T03:52:09;100283.81;;;0.47;100.00
53546;BME280;39432;51.902;10.844;2023-04-05T03:54:43;100292.75;;;0.78;100.00
53546;BME280;39432;51.902;10.844;2023-04-05T03:57:17;100285.47;;;0.48;100.00
53546;BME280;39432;51.902;10.844;2023-04-05T03:59:48;100283.72;;;0.63;100.00
53546;BME280;39432;51.902;10.844;2023-04-05T04:02:18;100280.97;;;0.71;100.00
53546;BME280;39432;51.902;10.844;2023-04-05T04:04:51;100284.59;;;0.87;100.00
53546;BME280;39432;51.902;10.844;2023-04-05T04:07:21;100282.09;;;1.08;100.00
53546;BME280;39432;51.902;10.844;2023-04-05T04:09:52;100279.97;;;1.26;100.00
53546;BME280;39432;51.902;10.844;2023-04-05T04:12:22;100280.66;;;1.43;100.00
53546;BME280;39432;51.902;10.844;2023-04-05T04:14:57;100269.75;;;1.37;100.00
53546;BME280;39432;51.902;10.844;2023-04-05T04:17:56;100279.69;;;0.67;100.00
53546;BME280;39432;51.902;10.844;2023-04-05T04:20:34;100278.03;;;1.12;100.00
53546;BME280;39432;51.902;10.844;2023-04-05T04:23:20;100283.69;;;1.78;100.00
53546;BME280;39432;51.902;10.844;2023-04-05T04:25:53;100272.72;;;1.42;100.00
53546;BME280;39432;51.902;10.844;2023-04-05T04:28:42;100282.28;;;1.67;100.00
53546;BME280;39432;51.902;10.844;2023-04-05T04:31:44;100276.00;;;1.14;100.00
53546;BME280;39432;51.902;10.844;2023-04-05T04:34:15;100274.84;;;1.54;100.00
53546;BME280;39432;51.902;10.844;2023-04-05T04:37:10;100275.50;;;1.34;100.00
53546;BME280;39432;51.902;10.844;2023-04-05T04:40:13;100277.69;;;1.53;100.00
53546;BME280;39432;51.902;10.844;2023-04-05T04:43:16;100279.53;;;2.05;100.00
53546;BME280;39432;51.902;10.844;2023-04-05T04:46:11;100285.22;;;0.97;100.00
53546;BME280;39432;51.902;10.844;2023-04-05T04:49:01;100289.06;;;1.63;100.00
53546;BME280;39432;51.902;10.844;2023-04-05T04:51:32;100283.63;;;2.16;100.00
53546;BME280;39432;51.902;10.844;2023-04-05T04:54:04;100288.19;;;2.00;100.00
53546;BME280;39432;51.902;10.844;2023-04-05T04:56:34;100291.56;;;2.32;100.00
53546;BME280;39432;51.902;10.844;2023-04-05T04:59:04;100288.84;;;2.83;100.00
53546;BME280;39432;51.902;10.844;2023-04-05T05:01:33;100285.03;;;2.11;100.00
53546;BME280;39432;51.902;10.844;2023-04-05T05:04:04;100284.81;;;1.83;100.00
53546;BME280;39432;51.902;10.844;2023-04-05T05:06:36;100277.38;;;2.30;100.00
53546;BME280;39432;51.902;10.844;2023-04-05T05:09:08;100291.75;;;2.16;100.00
53546;BME280;39432;51.902;10.844;2023-04-05T05:11:46;100287.53;;;1.83;100.00
53546;BME280;39432;51.902;10.844;2023-04-05T05:14:16;100286.31;;;2.01;100.00
53546;BME280;39432;51.902;10.844;2023-04-05T05:16:45;100296.84;;;1.96;100.00
53546;BME280;39432;51.902;10.844;2023-04-05T05:19:17;100289.13;;;2.22;100.00
53546;BME280;39432;51.902;10.844;2023-04-05T05:21:50;100295.13;;;1.65;100.00
53546;BME280;39432;51.902;10.844;2023-04-05T05:24:23;100289.19;;;1.32;100.00
53546;BME280;39432;51.902;10.844;2023-04-05T05:26:53;100290.34;;;2.05;100.00
53546;BME280;39432;51.902;10.844;2023-04-05T05:29:23;100286.34;;;2.16;100.00
53546;BME280;39432;51.902;10.844;2023-04-05T05:31:53;100282.97;;;2.14;100.00
53546;BME280;39432;51.902;10.844;2023-04-05T05:34:23;100290.13;;;2.51;100.00
53546;BME280;39432;51.902;10.844;2023-04-05T05:36:56;100287.16;;;2.46;100.00
53546;BME280;39432;51.902;10.844;2023-04-05T05:39:28;100288.84;;;2.17;100.00
53546;BME280;39432;51.902;10.844;2023-04-05T05:41:57;100294.31;;;1.94;100.00
53546;BME280;39432;51.902;10.844;2023-04-05T05:44:27;100282.91;;;2.73;100.00
53546;BME280;39432;51.902;10.844;2023-04-05T05:46:57;100284.91;;;2.85;100.00
53546;BME280;39432;51.902;10.844;2023-04-05T05:49:27;100288.09;;;2.53;100.00
53546;BME280;39432;51.902;10.844;2023-04-05T05:51:56;100286.31;;;2.30;100.00
53546;BME280;39432;51.902;10.844;2023-04-05T05:54:29;100295.72;;;2.64;100.00
53546;BME280;39432;51.902;10.844;2023-04-05T05:56:59;100289.69;;;2.32;100.00
53546;BME280;39432;51.902;10.844;2023-04-05T05:59:29;100283.38;;;2.76;100.00
53546;BME280;39432;51.902;10.844;2023-04-05T06:01:59;100291.75;;;2.81;100.00
53546;BME280;39432;51.902;10.844;2023-04-05T06:04:29;100292.94;;;2.13;100.00
53546;BME280;39432;51.902;10.844;2023-04-05T06:07:00;100291.66;;;2.09;100.00
53546;BME280;39432;51.902;10.844;2023-04-05T06:09:32;100288.78;;;2.76;100.00
53546;BME280;39432;51.902;10.844;2023-04-05T06:12:02;100293.66;;;2.66;100.00
53546;BME280;39432;51.902;10.844;2023-04-05T06:14:32;100289.88;;;2.16;100.00
53546;BME280;39432;51.902;10.844;2023-04-05T06:17:02;100297.66;;;2.55;100.00
53546;BME280;39432;51.902;10.844;2023-04-05T06:19:31;100284.19;;;3.13;100.00
53546;BME280;39432;51.902;10.844;2023-04-05T06:22:01;100298.72;;;2.10;100.00
53546;BME280;39432;51.902;10.844;2023-04-05T06:24:34;100298.44;;;2.34;100.00
53546;BME280;39432;51.902;10.844;2023-04-05T06:27:04;100285.97;;;2.84;100.00
53546;BME280;39432;51.902;10.844;2023-04-05T06:29:34;100287.91;;;3.12;100.00
53546;BME280;39432;51.902;10.844;2023-04-05T06:32:03;100287.03;;;3.26;100.00
53546;BME280;39432;51.902;10.844;2023-04-05T06:34:33;100282.13;;;3.15;100.00
53546;BME280;39432;51.902;10.844;2023-04-05T06:37:03;100289.34;;;2.72;100.00
53546;BME280;39432;51.902;10.844;2023-04-05T06:39:35;100286.34;;;2.81;100.00
53546;BME280;39432;51.902;10.844;2023-04-05T06:42:05;100291.03;;;3.30;100.00
53546;BME280;39432;51.902;10.844;2023-04-05T06:44:42;100277.06;;;3.76;100.00
53546;BME280;39432;51.902;10.844;2023-04-05T06:47:13;100274.25;;;3.63;100.00
53546;BME280;39432;51.902;10.844;2023-04-05T06:49:43;100284.13;;;3.49;100.00
53546;BME280;39432;51.902;10.844;2023-04-05T06:52:12;100278.88;;;3.69;100.00
53546;BME280;39432;51.902;10.844;2023-04-05T06:54:45;100284.06;;;3.42;100.00
53546;BME280;39432;51.902;10.844;2023-04-05T06:57:14;100283.84;;;3.65;100.00
53546;BME280;39432;51.902;10.844;2023-04-05T06:59:44;100286.25;;;4.10;100.00
53546;BME280;39432;51.902;10.844;2023-04-05T07:02:14;100275.59;;;4.02;100.00
53546;BME280;39432;51.902;10.844;2023-04-05T07:04:44;100276.31;;;3.89;99.67
53546;BME280;39432;51.902;10.844;2023-04-05T07:07:14;100278.88;;;3.69;98.00
53546;BME280;39432;51.902;10.844;2023-04-05T07:09:46;100271.59;;;4.39;97.80
53546;BME280;39432;51.902;10.844;2023-04-05T07:12:16;100273.06;;;3.72;98.41
53546;BME280;39432;51.902;10.844;2023-04-05T07:14:45;100278.91;;;4.38;96.81
53546;BME280;39432;51.902;10.844;2023-04-05T07:17:15;100270.41;;;4.07;96.09
53546;BME280;39432;51.902;10.844;2023-04-05T07:19:45;100280.25;;;3.86;98.19
53546;BME280;39432;51.902;10.844;2023-04-05T07:22:15;100273.56;;;4.52;98.60
53546;BME280;39432;51.902;10.844;2023-04-05T07:24:47;100270.00;;;4.10;98.57
53546;BME280;39432;51.902;10.844;2023-04-05T07:27:18;100269.56;;;4.47;98.90
53546;BME280;39432;51.902;10.844;2023-04-05T07:29:48;100270.78;;;4.93;98.45
53546;BME280;39432;51.902;10.844;2023-04-05T07:32:17;100276.31;;;5.52;95.45
53546;BME280;39432;51.902;10.844;2023-04-05T07:34:47;100282.56;;;5.79;91.32
53546;BME280;39432;51.902;10.844;2023-04-05T07:37:17;100265.19;;;5.08;92.20
53546;BME280;39432;51.902;10.844;2023-04-05T07:39:49;100265.19;;;5.21;92.13
53546;BME280;39432;51.902;10.844;2023-04-05T07:42:19;100264.81;;;5.64;87.61
53546;BME280;39432;51.902;10.844;2023-04-05T07:44:49;100264.41;;;5.67;83.34
53546;BME280;39432;51.902;10.844;2023-04-05T07:47:19;100258.78;;;7.04;81.36
53546;BME280;39432;51.902;10.844;2023-04-05T07:49:49;100259.19;;;8.51;75.11
53546;BME280;39432;51.902;10.844;2023-04-05T07:52:18;100262.41;;;6.98;75.54
53546;BME280;39432;51.902;10.844;2023-04-05T07:54:51;100268.00;;;6.65;73.17
53546;BME280;39432;51.902;10.844;2023-04-05T07:57:21;100260.88;;;7.02;69.34
53546;BME280;39432;51.902;10.844;2023-04-05T07:59:52;100257.47;;;7.45;68.43
53546;BME280;39432;51.902;10.844;2023-04-05T08:02:22;100263.13;;;6.16;68.94
53546;BME280;39432;51.902;10.844;2023-04-05T08:04:52;100263.63;;;7.34;68.65
53546;BME280;39432;51.902;10.844;2023-04-05T08:07:22;100263.16;;;6.67;70.61
53546;BME280;39432;51.902;10.844;2023-04-05T08:09:54;100268.47;;;8.25;66.87
53546;BME280;39432;51.902;10.844;2023-04-05T08:12:25;100254.84;;;8.62;63.52
53546;BME280;39432;51.902;10.844;2023-04-05T08:14:55;100258.88;;;7.54;65.09
53546;BME280;39432;51.902;10.844;2023-04-05T08:17:24;100252.03;;;6.24;69.98
53546;BME280;39432;51.902;10.844;2023-04-05T08:19:54;100260.09;;;7.58;70.24
53546;BME280;39432;51.902;10.844;2023-04-05T08:22:26;100256.19;;;7.73;67.77
53546;BME280;39432;51.902;10.844;2023-04-05T08:24:59;100246.63;;;7.88;65.19
53546;BME280;39432;51.902;10.844;2023-04-05T08:27:29;100252.34;;;6.92;65.63
53546;BME280;39432;51.902;10.844;2023-04-05T08:29:58;100244.03;;;7.19;66.04
53546;BME280;39432;51.902;10.844;2023-04-05T08:32:28;100243.50;;;7.35;66.57
53546;BME280;39432;51.902;10.844;2023-04-05T08:34:58;100247.50;;;7.57;66.99
53546;BME280;39432;51.902;10.844;2023-04-05T08:37:32;100244.50;;;7.16;68.26
53546;BME280;39432;51.902;10.844;2023-04-05T08:40:06;100242.31;;;7.31;68.32
53546;BME280;39432;51.902;10.844;2023-04-05T08:42:41;100253.66;;;6.38;65.43
53546;BME280;39432;51.902;10.844;2023-04-05T08:45:16;100234.03;;;7.12;64.70
53546;BME280;39432;51.902;10.844;2023-04-05T08:47:48;100246.50;;;6.50;66.21
53546;BME280;39432;51.902;10.844;2023-04-05T08:50:20;100242.56;;;6.84;66.03
53546;BME280;39432;51.902;10.844;2023-04-05T08:52:50;100244.84;;;6.49;65.82
53546;BME280;39432;51.902;10.844;2023-04-05T08:55:23;100239.06;;;7.16;64.53
53546;BME280;39432;51.902;10.844;2023-04-05T08:57:55;100248.06;;;6.78;61.75
53546;BME280;39432;51.902;10.844;2023-04-05T09:00:31;100238.94;;;7.29;60.85
53546;BME280;39432;51.902;10.844;2023-04-05T09:03:01;100255.47;;;6.57;60.88
53546;BME280;39432;51.902;10.844;2023-04-05T09:05:32;100248.38;;;6.56;63.06
53546;BME280;39432;51.902;10.844;2023-04-05T09:08:05;100249.63;;;6.92;63.55
53546;BME280;39432;51.902;10.844;2023-04-05T09:10:37;100241.31;;;7.50;61.99
53546;BME280;39432;51.902;10.844;2023-04-05T09:13:08;100246.75;;;6.87;59.41
53546;BME280;39432;51.902;10.844;2023-04-05T09:15:38;100247.69;;;5.83;61.02
53546;BME280;39432;51.902;10.844;2023-04-05T09:18:09;100245.16;;;6.73;61.22
53546;BME280;39432;51.902;10.844;2023-04-05T09:20:55;100249.09;;;6.32;61.01
53546;BME280;39432;51.902;10.844;2023-04-05T09:23:25;100251.31;;;7.25;60.03
53546;BME280;39432;51.902;10.844;2023-04-05T09:25:59;100243.72;;;7.02;59.17
53546;BME280;39432;51.902;10.844;2023-04-05T09:28:41;100250.28;;;7.26;58.57
53546;BME280;39432;51.902;10.844;2023-04-05T09:31:29;100234.69;;;7.64;59.63
53546;BME280;39432;51.902;10.844;2023-04-05T09:34:02;100251.22;;;6.17;59.46
53546;BME280;39432;51.902;10.844;2023-04-05T09:36:32;100246.22;;;6.07;60.67
53546;BME280;39432;51.902;10.844;2023-04-05T09:39:07;100236.66;;;6.94;60.38
53546;BME280;39432;51.902;10.844;2023-04-05T09:41:39;100241.41;;;7.37;59.26
53546;BME280;39432;51.902;10.844;2023-04-05T09:44:09;100242.41;;;7.68;57.24
53546;BME280;39432;51.902;10.844;2023-04-05T09:46:38;100234.69;;;7.39;55.41
53546;BME280;39432;51.902;10.844;2023-04-05T09:49:09;100234.03;;;7.44;56.47
53546;BME280;39432;51.902;10.844;2023-04-05T09:51:40;100237.56;;;7.45;56.41
53546;BME280;39432;51.902;10.844;2023-04-05T09:54:12;100244.31;;;7.42;56.14
53546;BME280;39432;51.902;10.844;2023-04-05T09:56:53;100237.41;;;7.64;57.28
53546;BME280;39432;51.902;10.844;2023-04-05T09:59:24;100237.41;;;6.70;59.00
53546;BME280;39432;51.902;10.844;2023-04-05T10:01:54;100235.63;;;6.50;60.60
53546;BME280;39432;51.902;10.844;2023-04-05T10:04:24;100237.00;;;6.15;64.61
53546;BME280;39432;51.902;10.844;2023-04-05T10:06:54;100228.47;;;5.71;66.59
53546;BME280;39432;51.902;10.844;2023-04-05T10:09:24;100229.25;;;6.70;67.25
53546;BME280;39432;51.902;10.844;2023-04-05T10:11:57;100236.72;;;6.88;65.44
53546;BME280;39432;51.902;10.844;2023-04-05T10:14:28;100233.63;;;6.32;65.82
53546;BME280;39432;51.902;10.844;2023-04-05T10:17:08;100222.19;;;5.91;65.21
53546;BME280;39432;51.902;10.844;2023-04-05T10:19:54;100232.59;;;6.20;63.00
53546;BME280;39432;51.902;10.844;2023-04-05T10:22:29;100231.94;;;6.38;62.21
53546;BME280;39432;51.902;10.844;2023-04-05T10:25:04;100227.63;;;5.71;64.76
53546;BME280;39432;51.902;10.844;2023-04-05T10:27:41;100225.97;;;5.96;63.77
53546;BME280;39432;51.902;10.844;2023-04-05T10:30:18;100224.19;;;6.80;61.34
53546;BME280;39432;51.902;10.844;2023-04-05T10:33:03;100223.50;;;6.91;54.92
53546;BME280;39432;51.902;10.844;2023-04-05T10:35:43;100219.25;;;6.64;53.95
53546;BME280;39432;51.902;10.844;2023-04-05T10:38:19;100221.28;;;7.63;52.51
53546;BME280;39432;51.902;10.844;2023-04-05T10:40:53;100218.66;;;7.25;52.96
53546;BME280;39432;51.902;10.844;2023-04-05T10:43:26;100205.91;;;7.93;53.23
53546;BME280;39432;51.902;10.844;2023-04-05T10:45:58;100219.19;;;6.77;53.59
53546;BME280;39432;51.902;10.844;2023-04-05T10:48:35;100216.25;;;7.66;52.72
53546;BME280;39432;51.902;10.844;2023-04-05T10:51:06;100213.66;;;7.47;52.34
53546;BME280;39432;51.902;10.844;2023-04-05T10:53:36;100205.34;;;6.85;52.58
53546;BME280;39432;51.902;10.844;2023-04-05T10:56:07;100213.31;;;7.43;53.34
53546;BME280;39432;51.902;10.844;2023-04-05T10:58:40;100209.38;;;7.82;52.41
53546;BME280;39432;51.902;10.844;2023-04-05T11:01:11;100213.34;;;6.73;52.56
53546;BME280;39432;51.902;10.844;2023-04-05T11:03:47;100208.41;;;7.27;53.73
53546;BME280;39432;51.902;10.844;2023-04-05T11:06:23;100196.72;;;7.20;52.79
53546;BME280;39432;51.902;10.844;2023-04-05T11:08:55;100197.25;;;7.60;52.66
53546;BME280;39432;51.902;10.844;2023-04-05T11:11:26;100190.31;;;7.82;52.36
53546;BME280;39432;51.902;10.844;2023-04-05T11:13:58;100196.75;;;8.06;51.24
53546;BME280;39432;51.902;10.844;2023-04-05T11:16:40;100193.75;;;8.81;51.06
53546;BME280;39432;51.902;10.844;2023-04-05T11:19:10;100192.25;;;8.67;49.80
53546;BME280;39432;51.902;10.844;2023-04-05T11:21:40;100190.75;;;8.41;48.45
53546;BME280;39432;51.902;10.844;2023-04-05T11:24:11;100174.69;;;8.93;49.04
53546;BME280;39432;51.902;10.844;2023-04-05T11:26:53;100184.09;;;8.97;48.23
53546;BME280;39432;51.902;10.844;2023-04-05T11:29:47;100176.41;;;9.17;47.36
53546;BME280;39432;51.902;10.844;2023-04-05T11:32:21;100179.72;;;7.92;50.23
53546;BME280;39432;51.902;10.844;2023-04-05T11:34:57;100172.16;;;9.21;49.70
53546;BME280;39432;51.902;10.844;2023-04-05T11:37:51;100168.31;;;8.39;50.52
53546;BME280;39432;51.902;10.844;2023-04-05T11:40:28;100165.88;;;7.94;50.75
53546;BME280;39432;51.902;10.844;2023-04-05T11:43:02;100164.06;;;8.43;49.86
53546;BME280;39432;51.902;10.844;2023-04-05T11:45:37;100160.50;;;8.42;50.50
53546;BME280;39432;51.902;10.844;2023-04-05T11:48:08;100158.91;;;9.84;49.73
53546;BME280;39432;51.902;10.844;2023-04-05T11:50:39;100157.47;;;9.69;49.16
53546;BME280;39432;51.902;10.844;2023-04-05T11:53:11;100153.19;;;9.50;48.50
53546;BME280;39432;51.902;10.844;2023-04-05T11:55:43;100150.19;;;9.87;49.83
53546;BME280;39432;51.902;10.844;2023-04-05T11:58:14;100143.56;;;8.82;48.16
53546;BME280;39432;51.902;10.844;2023-04-05T12:00:56;100148.91;;;9.31;50.81
53546;BME280;39432;51.902;10.844;2023-04-05T12:03:27;100146.88;;;8.24;49.50
53546;BME280;39432;51.902;10.844;2023-04-05T12:05:58;100138.16;;;8.52;48.20
53546;BME280;39432;51.902;10.844;2023-04-05T12:08:39;100143.78;;;8.69;47.96
53546;BME280;39432;51.902;10.844;2023-04-05T12:11:10;100140.44;;;8.97;47.88
53546;BME280;39432;51.902;10.844;2023-04-05T12:13:40;100144.13;;;8.73;49.63
53546;BME280;39432;51.902;10.844;2023-04-05T12:16:12;100136.16;;;8.59;48.80
53546;BME280;39432;51.902;10.844;2023-04-05T12:18:42;100137.16;;;9.54;48.05
53546;BME280;39432;51.902;10.844;2023-04-05T12:21:12;100140.28;;;8.92;48.04
53546;BME280;39432;51.902;10.844;2023-04-05T12:23:42;100138.91;;;8.71;49.13
53546;BME280;39432;51.902;10.844;2023-04-05T12:26:11;100127.94;;;8.48;48.53
53546;BME280;39432;51.902;10.844;2023-04-05T12:28:49;100129.78;;;9.54;48.25
53546;BME280;39432;51.902;10.844;2023-04-05T12:31:37;100118.69;;;9.96;46.54
53546;BME280;39432;51.902;10.844;2023-04-05T12:34:08;100124.56;;;9.53;45.59
53546;BME280;39432;51.902;10.844;2023-04-05T12:36:38;100119.44;;;9.33;45.47
53546;BME280;39432;51.902;10.844;2023-04-05T12:39:11;100111.22;;;8.97;46.02
53546;BME280;39432;51.902;10.844;2023-04-05T12:41:41;100111.50;;;9.19;46.30
53546;BME280;39432;51.902;10.844;2023-04-05T12:44:14;100104.94;;;8.97;46.74
53546;BME280;39432;51.902;10.844;2023-04-05T12:46:47;100108.34;;;9.98;45.50
53546;BME280;39432;51.902;10.844;2023-04-05T12:49:17;100101.50;;;9.84;45.58
53546;BME280;39432;51.902;10.844;2023-04-05T12:51:47;100109.69;;;7.13;45.63
53546;BME280;39432;51.902;10.844;2023-04-05T12:54:20;100101.69;;;7.43;46.07
53546;BME280;39432;51.902;10.844;2023-04-05T12:56:50;100092.47;;;7.62;45.61
53546;BME280;39432;51.902;10.844;2023-04-05T12:59:21;100097.47;;;8.02;45.61
53546;BME280;39432;51.902;10.844;2023-04-05T13:01:54;100087.72;;;7.76;45.57
53546;BME280;39432;51.902;10.844;2023-04-05T13:04:24;100084.09;;;8.12;45.48
53546;BME280;39432;51.902;10.844;2023-04-05T13:06:54;100079.28;;;8.44;45.42
53546;BME280;39432;51.902;10.844;2023-04-05T13:09:24;100076.75;;;8.13;45.39
53546;BME280;39432;51.902;10.844;2023-04-05T13:11:53;100075.75;;;9.09;44.64
53546;BME280;39432;51.902;10.844;2023-04-05T13:14:23;100071.06;;;8.03;44.11
53546;BME280;39432;51.902;10.844;2023-04-05T13:16:55;100071.13;;;7.96;45.21
53546;BME280;39432;51.902;10.844;2023-04-05T13:19:25;100068.38;;;7.96;45.51